createdAt,value
2023-05-25T00:01:01.833Z,55.06
2023-05-25T00:02:05.514Z,55.36
2023-05-25T00:03:10.293Z,55.42
2023-05-25T00:04:17.565Z,55.50
2023-05-25T00:05:21.250Z,55.59
2023-05-25T00:06:23.552Z,55.62
2023-05-25T00:07:25.866Z,55.71
2023-05-25T00:08:29.107Z,55.92
2023-05-25T00:09:31.487Z,55.75
2023-05-25T00:10:33.859Z,55.73
2023-05-25T00:11:36.488Z,55.86
2023-05-25T00:12:38.858Z,55.89
2023-05-25T00:13:41.251Z,56.16
2023-05-25T00:14:43.575Z,56.02
2023-05-25T00:15:46.105Z,56.12
2023-05-25T00:16:49.129Z,55.94
2023-05-25T00:17:54.800Z,55.91
2023-05-25T00:18:57.897Z,55.92
2023-05-25T00:20:10.865Z,56.08
2023-05-25T00:21:14.277Z,56.16
2023-05-25T00:22:16.940Z,56.38
2023-05-25T00:23:19.251Z,56.39
2023-05-25T00:24:21.546Z,56.26
2023-05-25T00:25:23.876Z,56.30
2023-05-25T00:26:26.306Z,56.63
2023-05-25T00:27:28.619Z,56.50
2023-05-25T00:28:31.077Z,56.46
2023-05-25T00:29:33.954Z,56.53
2023-05-25T00:30:36.697Z,56.43
2023-05-25T00:31:39.133Z,56.43
2023-05-25T00:32:41.565Z,56.43
2023-05-25T00:33:44.394Z,56.43
2023-05-25T00:34:47.537Z,56.61
2023-05-25T00:35:49.866Z,56.50
2023-05-25T00:36:52.199Z,56.51
2023-05-25T00:37:54.487Z,56.65
2023-05-25T00:38:56.884Z,56.58
2023-05-25T00:39:59.242Z,56.60
2023-05-25T00:41:02.838Z,56.69
2023-05-25T00:42:06.703Z,56.88
2023-05-25T00:43:09.652Z,56.77
2023-05-25T00:44:15.162Z,56.79
2023-05-25T00:45:17.719Z,56.85
2023-05-25T00:46:20.096Z,56.92
2023-05-25T00:47:22.898Z,56.93
2023-05-25T00:48:27.981Z,56.86
2023-05-25T00:49:33.944Z,56.82
2023-05-25T00:50:42.175Z,56.92
2023-05-25T00:51:48.333Z,56.93
2023-05-25T00:52:50.897Z,56.99
2023-05-25T00:53:53.530Z,57.15
2023-05-25T00:55:00.929Z,57.20
2023-05-25T00:56:11.100Z,57.17
2023-05-25T00:57:16.806Z,57.24
2023-05-25T00:58:22.143Z,57.22
2023-05-25T00:59:29.025Z,57.19
2023-05-25T01:00:33.495Z,57.40
2023-05-25T01:01:40.468Z,57.19
2023-05-25T01:02:44.171Z,57.29
2023-05-25T01:03:54.055Z,57.35
2023-05-25T01:05:00.346Z,57.32
2023-05-25T01:06:07.556Z,57.40
2023-05-25T01:07:11.672Z,57.43
2023-05-25T01:08:17.139Z,57.47
2023-05-25T01:09:22.598Z,57.47
2023-05-25T01:10:26.252Z,57.39
2023-05-25T01:11:33.567Z,57.42
2023-05-25T01:12:38.783Z,57.42
2023-05-25T01:13:44.325Z,57.48
2023-05-25T01:14:48.818Z,57.59
2023-05-25T01:15:51.864Z,57.55
2023-05-25T01:16:57.550Z,57.57
2023-05-25T01:18:00.274Z,57.53
2023-05-25T01:19:04.687Z,57.53
2023-05-25T01:20:11.744Z,57.63
2023-05-25T01:21:23.262Z,57.64
2023-05-25T01:22:34.426Z,57.87
2023-05-25T01:23:38.984Z,57.71
2023-05-25T01:25:03.964Z,57.73
2023-05-25T01:26:11.609Z,57.89
2023-05-25T01:27:20.002Z,57.88
2023-05-25T01:28:27.002Z,58.11
2023-05-25T01:29:31.382Z,58.10
2023-05-25T01:30:36.776Z,58.00
2023-05-25T01:31:40.314Z,58.17
2023-05-25T01:32:44.173Z,58.03
2023-05-25T01:33:47.393Z,58.06
2023-05-25T01:34:50.567Z,58.19
2023-05-25T01:35:52.870Z,58.22
2023-05-25T01:36:55.282Z,58.28
2023-05-25T01:37:59.043Z,58.25
2023-05-25T01:39:01.436Z,58.42
2023-05-25T01:40:08.671Z,58.28
2023-05-25T01:41:11.146Z,58.31
2023-05-25T01:42:13.474Z,58.24
2023-05-25T01:43:16.839Z,58.28
2023-05-25T01:44:19.776Z,58.26
2023-05-25T01:45:22.403Z,58.28
2023-05-25T01:46:37.118Z,58.33
2023-05-25T01:47:54.330Z,58.13
2023-05-25T01:49:26.676Z,58.02
2023-05-25T01:50:51.306Z,58.14
2023-05-25T01:52:17.829Z,58.32
2023-05-25T01:53:24.089Z,58.35
2023-05-25T01:54:47.323Z,58.47
2023-05-25T01:56:02.372Z,58.35
2023-05-25T01:57:10.446Z,58.29
2023-05-25T01:58:15.318Z,58.51
2023-05-25T01:59:20.933Z,58.39
2023-05-25T02:00:25.974Z,58.53
2023-05-25T02:01:28.554Z,58.35
2023-05-25T02:02:33.285Z,58.46
2023-05-25T02:03:37.669Z,58.51
2023-05-25T02:04:42.588Z,58.63
2023-05-25T02:05:46.522Z,58.44
2023-05-25T02:06:49.486Z,58.54
2023-05-25T02:07:52.629Z,58.51
2023-05-25T02:08:54.952Z,58.49
2023-05-25T02:09:57.565Z,58.68
2023-05-25T02:11:00.074Z,58.53
2023-05-25T02:12:03.440Z,58.67
2023-05-25T02:13:05.999Z,58.65
2023-05-25T02:14:09.319Z,58.74
2023-05-25T02:15:12.217Z,58.69
2023-05-25T02:16:14.599Z,58.70
2023-05-25T02:17:20.673Z,58.88
2023-05-25T02:18:23.860Z,58.78
2023-05-25T02:19:30.302Z,58.77
2023-05-25T02:20:33.011Z,58.96
2023-05-25T02:21:38.467Z,58.99
2023-05-25T02:22:40.847Z,58.87
2023-05-25T02:23:43.550Z,58.98
2023-05-25T02:24:46.828Z,58.86
2023-05-25T02:25:49.208Z,59.04
2023-05-25T02:26:52.228Z,59.01
2023-05-25T02:27:56.027Z,59.00
2023-05-25T02:28:58.342Z,59.00
2023-05-25T02:30:00.687Z,59.08
2023-05-25T02:31:04.498Z,59.20
2023-05-25T02:32:07.081Z,59.32
2023-05-25T02:33:09.520Z,59.26
2023-05-25T02:34:12.052Z,59.23
2023-05-25T02:35:15.762Z,59.27
2023-05-25T02:36:18.337Z,59.32
2023-05-25T02:37:21.399Z,59.38
2023-05-25T02:38:25.315Z,59.52
2023-05-25T02:39:28.854Z,59.58
2023-05-25T02:40:33.288Z,59.54
2023-05-25T02:41:35.658Z,59.55
2023-05-25T02:42:38.334Z,59.65
2023-05-25T02:43:40.790Z,59.58
2023-05-25T02:44:48.481Z,59.45
2023-05-25T02:45:50.876Z,59.50
2023-05-25T02:46:53.322Z,59.56
2023-05-25T02:47:55.878Z,59.53
2023-05-25T02:49:00.185Z,59.57
2023-05-25T02:50:03.295Z,59.74
2023-05-25T02:51:07.951Z,59.91
2023-05-25T02:52:10.314Z,59.94
2023-05-25T02:53:12.712Z,59.93
2023-05-25T02:54:15.009Z,59.88
2023-05-25T02:55:18.978Z,59.82
2023-05-25T02:56:23.073Z,60.09
2023-05-25T02:57:26.144Z,60.24
2023-05-25T02:58:28.610Z,60.40
2023-05-25T02:59:43.272Z,60.41
2023-05-25T03:00:47.042Z,60.11
2023-05-25T03:01:49.782Z,60.05
2023-05-25T03:02:52.211Z,60.01
2023-05-25T03:03:55.296Z,59.93
2023-05-25T03:05:04.170Z,59.87
2023-05-25T03:06:07.845Z,59.78
2023-05-25T03:07:10.190Z,59.78
2023-05-25T03:08:13.364Z,59.80
2023-05-25T03:09:16.039Z,59.84
2023-05-25T03:10:18.313Z,59.83
2023-05-25T03:11:21.312Z,59.85
2023-05-25T03:12:24.272Z,59.96
2023-05-25T03:13:27.010Z,59.87
2023-05-25T03:14:29.388Z,59.94
2023-05-25T03:15:38.298Z,59.96
2023-05-25T03:16:40.744Z,59.92
2023-05-25T03:17:43.208Z,59.89
2023-05-25T03:18:46.046Z,59.86
2023-05-25T03:19:48.442Z,59.76
2023-05-25T03:20:50.893Z,59.81
2023-05-25T03:21:53.737Z,59.94
2023-05-25T03:22:56.247Z,59.83
2023-05-25T03:23:59.668Z,59.91
2023-05-25T03:25:02.624Z,59.88
2023-05-25T03:26:05.042Z,59.85
2023-05-25T03:27:08.837Z,59.82
2023-05-25T03:28:11.626Z,59.96
2023-05-25T03:29:14.678Z,59.98
2023-05-25T03:30:17.121Z,60.01
2023-05-25T03:31:21.758Z,60.09
2023-05-25T03:32:24.462Z,60.05
2023-05-25T03:33:27.059Z,60.23
2023-05-25T03:34:30.289Z,60.20
2023-05-25T03:35:33.110Z,60.27
2023-05-25T03:36:35.450Z,60.31
2023-05-25T03:37:37.895Z,60.39
2023-05-25T03:38:40.591Z,60.46
2023-05-25T03:39:42.938Z,60.58
2023-05-25T03:40:45.300Z,60.51
2023-05-25T03:41:47.767Z,60.53
2023-05-25T03:42:50.602Z,60.59
2023-05-25T03:43:52.943Z,60.70
2023-05-25T03:44:55.943Z,60.77
2023-05-25T03:45:58.939Z,60.77
2023-05-25T03:47:01.313Z,60.73
2023-05-25T03:48:04.948Z,60.95
2023-05-25T03:49:07.354Z,60.97
2023-05-25T03:50:11.121Z,60.96
2023-05-25T03:51:13.415Z,60.94
2023-05-25T03:52:15.734Z,60.93
2023-05-25T03:53:18.155Z,60.89
2023-05-25T03:54:20.801Z,60.87
2023-05-25T03:55:23.911Z,60.85
2023-05-25T03:56:27.549Z,60.77
2023-05-25T03:57:29.961Z,60.75
2023-05-25T03:58:35.416Z,60.68
2023-05-25T03:59:37.756Z,60.76
2023-05-25T04:00:40.144Z,60.56
2023-05-25T04:01:42.524Z,60.51
2023-05-25T04:02:44.922Z,60.49
2023-05-25T04:03:47.572Z,60.33
2023-05-25T04:04:52.114Z,60.32
2023-05-25T04:05:54.436Z,60.26
2023-05-25T04:06:56.756Z,60.07
2023-05-25T04:07:59.465Z,59.82
2023-05-25T04:09:01.820Z,59.87
2023-05-25T04:10:05.003Z,59.62
2023-05-25T04:11:07.756Z,59.71
2023-05-25T04:12:10.128Z,59.69
2023-05-25T04:13:13.018Z,59.56
2023-05-25T04:14:15.482Z,59.53
2023-05-25T04:15:18.766Z,59.62
2023-05-25T04:16:30.268Z,59.43
2023-05-25T04:17:39.080Z,59.56
2023-05-25T04:18:41.902Z,59.28
2023-05-25T04:19:44.327Z,59.22
2023-05-25T04:20:47.187Z,59.16
2023-05-25T04:21:51.018Z,59.09
2023-05-25T04:22:53.742Z,59.19
2023-05-25T04:23:56.241Z,58.89
2023-05-25T04:24:58.877Z,58.80
2023-05-25T04:26:01.943Z,58.84
2023-05-25T04:27:05.669Z,58.75
2023-05-25T04:28:08.715Z,58.43
2023-05-25T04:29:32.319Z,58.35
2023-05-25T04:30:57.462Z,58.06
2023-05-25T04:32:30.162Z,57.90
2023-05-25T04:34:02.880Z,57.79
2023-05-25T04:35:08.118Z,57.66
2023-05-25T04:36:16.899Z,57.46
2023-05-25T04:37:19.364Z,57.54
2023-05-25T04:38:21.920Z,57.15
2023-05-25T04:39:24.330Z,57.08
2023-05-25T04:40:30.321Z,56.67
2023-05-25T04:41:34.130Z,56.65
2023-05-25T04:42:43.045Z,56.22
2023-05-25T04:44:04.023Z,56.06
2023-05-25T04:45:13.107Z,55.84
2023-05-25T04:46:17.254Z,55.66
2023-05-25T04:47:20.136Z,55.54
2023-05-25T04:48:24.750Z,55.16
2023-05-25T04:49:27.495Z,55.07
2023-05-25T04:50:30.030Z,54.96
2023-05-25T04:51:32.716Z,54.87
2023-05-25T04:52:35.212Z,54.66
2023-05-25T04:53:37.791Z,54.43
2023-05-25T04:54:42.113Z,54.40
2023-05-25T04:55:44.832Z,54.19
2023-05-25T04:56:47.899Z,53.90
2023-05-25T04:57:50.191Z,53.48
2023-05-25T04:58:53.888Z,53.22
2023-05-25T04:59:56.503Z,53.12
2023-05-25T05:00:59.147Z,52.52
2023-05-25T05:02:01.533Z,52.41
2023-05-25T05:03:04.053Z,52.45
2023-05-25T05:04:08.347Z,52.61
2023-05-25T05:05:10.949Z,52.58
2023-05-25T05:06:13.570Z,52.41
2023-05-25T05:07:15.965Z,52.36
2023-05-25T05:08:18.665Z,52.22
2023-05-25T05:09:21.246Z,51.78
2023-05-25T05:10:24.279Z,51.33
2023-05-25T05:11:31.134Z,51.14
2023-05-25T05:12:33.810Z,50.97
2023-05-25T05:13:37.635Z,50.75
2023-05-25T05:14:40.035Z,50.66
2023-05-25T05:15:43.117Z,50.58
2023-05-25T05:16:45.667Z,50.33
2023-05-25T05:17:48.097Z,50.25
2023-05-25T05:18:50.585Z,49.78
2023-05-25T05:19:52.911Z,49.45
2023-05-25T05:20:55.392Z,49.07
2023-05-25T05:22:00.139Z,48.73
2023-05-25T05:23:03.882Z,48.90
2023-05-25T05:24:06.550Z,48.63
2023-05-25T05:25:09.591Z,48.83
2023-05-25T05:26:15.429Z,48.38
2023-05-25T05:27:19.740Z,48.38
2023-05-25T05:28:30.057Z,48.25
2023-05-25T05:29:34.491Z,47.91
2023-05-25T05:30:36.870Z,47.79
2023-05-25T05:31:39.408Z,47.87
2023-05-25T05:32:41.868Z,47.80
2023-05-25T05:33:46.003Z,47.59
2023-05-25T05:34:48.529Z,47.49
2023-05-25T05:36:07.475Z,47.26
2023-05-25T05:37:11.435Z,47.15
2023-05-25T05:38:16.627Z,46.86
2023-05-25T05:39:20.898Z,46.58
2023-05-25T05:40:23.193Z,46.72
2023-05-25T05:41:25.734Z,46.50
2023-05-25T05:42:28.187Z,45.90
2023-05-25T05:43:30.707Z,45.62
2023-05-25T05:44:32.985Z,45.79
2023-05-25T05:45:35.294Z,45.42
2023-05-25T05:46:38.588Z,45.38
2023-05-25T05:47:41.034Z,45.30
2023-05-25T05:48:43.706Z,45.31
2023-05-25T05:49:46.141Z,44.81
2023-05-25T05:50:48.508Z,44.72
2023-05-25T05:51:50.922Z,44.69
2023-05-25T05:52:53.886Z,44.21
2023-05-25T05:53:56.484Z,44.08
2023-05-25T05:54:59.251Z,44.08
2023-05-25T05:56:02.972Z,44.20
2023-05-25T05:57:06.751Z,44.03
2023-05-25T05:58:09.483Z,43.86
2023-05-25T05:59:12.087Z,43.67
2023-05-25T06:00:16.301Z,43.34
2023-05-25T06:01:18.647Z,43.18
2023-05-25T06:02:21.231Z,43.08
2023-05-25T06:03:23.988Z,42.68
2023-05-25T06:04:29.599Z,42.70
2023-05-25T06:05:33.542Z,42.41
2023-05-25T06:06:37.879Z,42.41
2023-05-25T06:07:45.831Z,42.38
2023-05-25T06:08:48.597Z,42.18
2023-05-25T06:09:50.979Z,42.01
2023-05-25T06:10:53.296Z,41.84
2023-05-25T06:11:55.587Z,41.51
2023-05-25T06:12:57.847Z,41.13
2023-05-25T06:14:00.384Z,41.27
2023-05-25T06:15:02.994Z,41.19
2023-05-25T06:16:05.680Z,40.78
2023-05-25T06:18:10.343Z,40.64
2023-05-25T06:19:14.685Z,40.16
2023-05-25T06:20:17.910Z,39.86
2023-05-25T06:21:21.944Z,40.27
2023-05-25T06:22:28.120Z,40.25
2023-05-25T06:23:31.753Z,40.09
2023-05-25T06:24:34.068Z,39.71
2023-05-25T06:25:36.591Z,39.49
2023-05-25T06:26:38.901Z,39.46
2023-05-25T06:27:41.250Z,39.62
2023-05-25T06:28:43.823Z,39.06
2023-05-25T06:29:46.270Z,39.11
2023-05-25T06:30:48.702Z,38.62
2023-05-25T06:31:51.381Z,38.24
2023-05-25T06:32:54.230Z,38.23
2023-05-25T06:33:56.983Z,37.76
2023-05-25T06:34:59.435Z,38.16
2023-05-25T06:36:04.966Z,37.50
2023-05-25T06:37:08.448Z,37.38
2023-05-25T06:38:12.433Z,37.50
2023-05-25T06:39:14.997Z,37.27
2023-05-25T06:40:18.269Z,37.60
2023-05-25T06:41:21.405Z,37.40
2023-05-25T06:42:23.833Z,37.26
2023-05-25T06:43:39.707Z,36.92
2023-05-25T06:44:48.718Z,36.42
2023-05-25T06:45:51.220Z,36.44
2023-05-25T06:46:54.948Z,36.58
2023-05-25T06:47:57.782Z,36.35
2023-05-25T06:49:01.802Z,36.46
2023-05-25T06:50:04.600Z,35.80
2023-05-25T06:51:06.920Z,36.00
2023-05-25T06:52:09.269Z,35.80
2023-05-25T06:53:11.822Z,35.05
2023-05-25T06:54:15.611Z,35.12
2023-05-25T06:55:17.887Z,34.83
2023-05-25T06:56:20.363Z,34.87
2023-05-25T06:57:23.958Z,35.04
2023-05-25T06:58:27.559Z,34.49
2023-05-25T06:59:29.917Z,34.35
2023-05-25T07:00:32.203Z,33.70
2023-05-25T07:01:34.585Z,33.57
2023-05-25T07:02:37.007Z,33.77
2023-05-25T07:03:39.398Z,33.62
2023-05-25T07:04:42.258Z,33.38
2023-05-25T07:05:44.931Z,33.58
2023-05-25T07:06:48.572Z,33.52
2023-05-25T07:07:51.069Z,33.33
2023-05-25T07:08:53.570Z,33.21
2023-05-25T07:09:55.847Z,33.18
2023-05-25T07:10:58.340Z,33.25
2023-05-25T07:12:02.464Z,32.84
2023-05-25T07:13:04.935Z,32.48
2023-05-25T07:14:07.291Z,32.25
2023-05-25T07:15:10.633Z,32.34
2023-05-25T07:16:13.210Z,32.13
2023-05-25T07:17:16.028Z,31.91
2023-05-25T07:18:19.134Z,31.87
2023-05-25T07:19:21.498Z,31.86
2023-05-25T07:20:24.423Z,31.77
2023-05-25T07:21:26.960Z,31.37
2023-05-25T07:22:29.289Z,31.60
2023-05-25T07:23:32.649Z,31.15
2023-05-25T07:24:35.014Z,31.14
2023-05-25T07:25:40.941Z,30.83
2023-05-25T07:26:44.637Z,31.39
2023-05-25T07:27:50.578Z,30.74
2023-05-25T07:28:52.983Z,30.62
2023-05-25T07:29:55.335Z,30.53
2023-05-25T07:30:57.808Z,30.65
2023-05-25T07:32:00.564Z,30.58
2023-05-25T07:33:02.967Z,29.99
2023-05-25T07:34:05.677Z,29.90
2023-05-25T07:35:08.200Z,29.91
2023-05-25T07:36:10.843Z,30.09
2023-05-25T07:37:13.191Z,30.39
2023-05-25T07:38:15.683Z,30.23
2023-05-25T07:39:18.025Z,30.43
2023-05-25T07:40:20.425Z,30.09
2023-05-25T07:41:23.199Z,29.63
2023-05-25T07:42:25.595Z,29.72
2023-05-25T07:43:28.060Z,29.46
2023-05-25T07:44:30.516Z,29.22
2023-05-25T07:45:33.137Z,29.42
2023-05-25T07:46:35.502Z,29.47
2023-05-25T07:47:38.018Z,29.36
2023-05-25T07:48:40.460Z,29.38
2023-05-25T07:49:42.933Z,29.02
2023-05-25T07:50:45.355Z,29.25
2023-05-25T07:51:47.658Z,28.70
2023-05-25T07:52:49.943Z,29.16
2023-05-25T07:53:53.800Z,29.06
2023-05-25T07:54:56.356Z,28.46
2023-05-25T07:55:58.662Z,28.72
2023-05-25T07:57:01.792Z,28.77
2023-05-25T07:58:04.370Z,29.06
2023-05-25T07:59:07.629Z,28.59
2023-05-25T08:00:11.281Z,28.50
2023-05-25T08:01:16.532Z,28.57
2023-05-25T08:02:18.905Z,28.89
2023-05-25T08:03:31.941Z,28.35
2023-05-25T08:04:38.608Z,28.31
2023-05-25T08:05:41.267Z,28.22
2023-05-25T08:06:44.667Z,28.09
2023-05-25T08:07:46.969Z,28.26
2023-05-25T08:08:50.174Z,27.92
2023-05-25T08:09:52.594Z,28.23
2023-05-25T08:10:54.939Z,28.40
2023-05-25T08:12:12.895Z,28.26
2023-05-25T08:13:20.010Z,27.53
2023-05-25T08:14:24.035Z,27.81
2023-05-25T08:15:26.777Z,27.95
2023-05-25T08:16:29.109Z,27.55
2023-05-25T08:17:31.628Z,27.46
2023-05-25T08:18:33.905Z,27.42
2023-05-25T08:19:36.265Z,27.08
2023-05-25T08:20:38.689Z,27.21
2023-05-25T08:21:41.066Z,27.53
2023-05-25T08:22:44.921Z,27.41
2023-05-25T08:23:47.255Z,27.67
2023-05-25T08:24:50.129Z,27.59
2023-05-25T08:25:53.709Z,27.09
2023-05-25T08:26:56.077Z,27.10
2023-05-25T08:27:58.368Z,27.24
2023-05-25T08:29:01.909Z,26.92
2023-05-25T08:30:06.299Z,26.84
2023-05-25T08:31:08.706Z,26.61
2023-05-25T08:32:11.328Z,26.60
2023-05-25T08:33:13.689Z,26.63
2023-05-25T08:34:17.003Z,26.39
2023-05-25T08:35:19.880Z,26.38
2023-05-25T08:36:22.150Z,26.17
2023-05-25T08:37:25.147Z,26.56
2023-05-25T08:38:27.501Z,26.55
2023-05-25T08:39:29.842Z,26.46
2023-05-25T08:40:32.755Z,26.67
2023-05-25T08:41:36.942Z,26.38
2023-05-25T08:42:41.442Z,26.35
2023-05-25T08:43:43.859Z,26.39
2023-05-25T08:44:46.214Z,26.44
2023-05-25T08:45:48.853Z,26.40
2023-05-25T08:46:52.449Z,26.26
2023-05-25T08:47:59.535Z,26.35
2023-05-25T08:49:10.472Z,26.37
2023-05-25T08:50:17.360Z,25.93
2023-05-25T08:51:20.161Z,26.15
2023-05-25T08:52:24.401Z,26.19
2023-05-25T08:53:27.646Z,26.50
2023-05-25T08:54:37.433Z,26.52
2023-05-25T08:55:43.226Z,26.58
2023-05-25T08:57:06.366Z,26.95
2023-05-25T08:58:17.760Z,26.87
2023-05-25T08:59:44.936Z,26.27
2023-05-25T09:00:57.956Z,26.18
2023-05-25T09:02:19.040Z,26.21
2023-05-25T09:03:24.061Z,26.45
2023-05-25T09:04:27.062Z,26.41
2023-05-25T09:05:29.853Z,26.75
2023-05-25T09:06:34.225Z,27.06
2023-05-25T09:07:36.764Z,26.66
2023-05-25T09:08:39.877Z,26.64
2023-05-25T09:09:42.819Z,26.86
2023-05-25T09:10:45.097Z,26.67
2023-05-25T09:11:47.815Z,26.72
2023-05-25T09:12:52.044Z,26.43
2023-05-25T09:13:54.899Z,26.88
2023-05-25T09:14:58.856Z,26.84
2023-05-25T09:16:02.456Z,26.93
2023-05-25T09:17:05.119Z,26.97
2023-05-25T09:18:07.544Z,26.86
2023-05-25T09:19:10.189Z,26.98
2023-05-25T09:20:14.290Z,26.81
2023-05-25T09:21:16.705Z,26.94
2023-05-25T09:22:19.177Z,26.96
2023-05-25T09:23:21.786Z,27.01
2023-05-25T09:24:24.363Z,27.14
2023-05-25T09:25:28.742Z,27.18
2023-05-25T09:26:31.409Z,27.21
2023-05-25T09:27:35.787Z,27.32
2023-05-25T09:28:47.098Z,27.26
2023-05-25T09:29:53.453Z,27.51
2023-05-25T09:30:56.544Z,27.80
2023-05-25T09:32:00.396Z,27.65
2023-05-25T09:33:17.972Z,27.71
2023-05-25T09:34:20.768Z,26.96
2023-05-25T09:35:23.850Z,27.26
2023-05-25T09:36:26.765Z,27.20
2023-05-25T09:37:29.597Z,27.10
2023-05-25T09:38:32.981Z,27.18
2023-05-25T09:39:36.020Z,27.22
2023-05-25T09:40:38.688Z,27.39
2023-05-25T09:41:41.715Z,27.18
2023-05-25T09:42:44.420Z,26.64
2023-05-25T09:43:58.106Z,27.32
2023-05-25T09:45:09.224Z,27.18
2023-05-25T09:46:11.819Z,27.24
2023-05-25T09:47:15.565Z,27.11
2023-05-25T09:48:18.378Z,26.93
2023-05-25T09:49:21.499Z,26.39
2023-05-25T09:50:27.224Z,26.62
2023-05-25T09:51:33.369Z,26.97
2023-05-25T09:52:36.618Z,26.96
2023-05-25T09:53:39.016Z,27.29
2023-05-25T09:54:44.919Z,27.30
2023-05-25T09:55:53.785Z,26.58
2023-05-25T09:56:56.977Z,26.53
2023-05-25T09:57:59.368Z,26.66
2023-05-25T09:59:01.690Z,26.59
2023-05-25T10:00:05.836Z,26.53
2023-05-25T10:01:15.279Z,26.19
2023-05-25T10:02:17.629Z,26.32
2023-05-25T10:03:22.199Z,26.15
2023-05-25T10:04:25.004Z,26.37
2023-05-25T10:05:27.493Z,25.98
2023-05-25T10:06:32.029Z,26.18
2023-05-25T10:07:35.292Z,26.16
2023-05-25T10:08:38.077Z,25.67
2023-05-25T10:09:42.033Z,25.80
2023-05-25T10:10:45.396Z,26.20
2023-05-25T10:11:51.058Z,26.55
2023-05-25T10:12:55.633Z,26.51
2023-05-25T10:14:04.109Z,26.64
2023-05-25T10:15:07.850Z,26.52
2023-05-25T10:16:17.657Z,26.00
2023-05-25T10:17:23.807Z,26.01
2023-05-25T10:18:29.004Z,25.85
2023-05-25T10:19:37.562Z,26.07
2023-05-25T10:20:40.414Z,25.95
2023-05-25T10:21:48.151Z,26.22
2023-05-25T10:23:10.835Z,26.71
2023-05-25T10:24:24.961Z,26.86
2023-05-25T10:25:31.825Z,26.32
2023-05-25T10:26:39.742Z,26.64
2023-05-25T10:27:48.157Z,26.44
2023-05-25T10:28:51.704Z,26.56
2023-05-25T10:29:56.502Z,26.83
2023-05-25T10:31:00.213Z,27.39
2023-05-25T10:32:04.993Z,27.24
2023-05-25T10:33:08.788Z,26.74
2023-05-25T10:34:11.559Z,26.71
2023-05-25T10:35:14.714Z,27.16
2023-05-25T10:36:18.361Z,27.16
2023-05-25T10:37:21.528Z,26.67
2023-05-25T10:38:31.558Z,26.97
2023-05-25T10:39:34.383Z,27.24
2023-05-25T10:40:38.519Z,27.41
2023-05-25T10:41:42.039Z,27.56
2023-05-25T10:42:46.616Z,27.54
2023-05-25T10:43:50.043Z,27.11
2023-05-25T10:44:52.744Z,27.28
2023-05-25T10:45:56.903Z,27.01
2023-05-25T10:47:00.419Z,26.91
2023-05-25T10:48:03.070Z,26.82
2023-05-25T10:49:06.056Z,26.88
2023-05-25T10:50:27.217Z,27.06
2023-05-25T10:51:40.141Z,27.28
2023-05-25T10:52:42.537Z,27.72
2023-05-25T10:53:48.547Z,27.57
2023-05-25T10:54:56.646Z,27.73
2023-05-25T10:56:03.343Z,28.06
2023-05-25T10:57:11.475Z,27.97
2023-05-25T10:58:16.655Z,27.76
2023-05-25T10:59:27.818Z,28.24
2023-05-25T11:00:31.498Z,28.04
2023-05-25T11:01:50.480Z,28.29
2023-05-25T11:02:55.616Z,28.04
2023-05-25T11:04:16.300Z,27.94
2023-05-25T11:05:27.950Z,27.63
2023-05-25T11:06:44.377Z,27.39
2023-05-25T11:07:56.902Z,27.49
2023-05-25T11:09:00.603Z,27.22
2023-05-25T11:10:03.811Z,27.47
2023-05-25T11:11:06.522Z,27.65
2023-05-25T11:12:09.138Z,27.49
2023-05-25T11:13:37.017Z,27.99
2023-05-25T11:14:42.856Z,27.95
2023-05-25T11:15:45.423Z,28.34
2023-05-25T11:17:15.266Z,28.07
2023-05-25T11:18:18.198Z,27.79
2023-05-25T11:19:21.619Z,28.01
2023-05-25T11:20:27.880Z,28.04
2023-05-25T11:21:32.890Z,28.09
2023-05-25T11:22:37.818Z,27.36
2023-05-25T11:23:59.588Z,27.46
2023-05-25T11:25:03.741Z,27.36
2023-05-25T11:26:07.996Z,27.97
2023-05-25T11:27:10.364Z,28.27
2023-05-25T11:28:13.173Z,28.30
2023-05-25T11:29:16.376Z,28.29
2023-05-25T11:30:18.749Z,28.43
2023-05-25T11:31:27.571Z,28.86
2023-05-25T11:32:30.012Z,28.65
2023-05-25T11:33:32.453Z,28.86
2023-05-25T11:34:35.150Z,28.67
2023-05-25T11:35:37.554Z,28.92
2023-05-25T11:36:40.030Z,28.64
2023-05-25T11:37:50.181Z,28.43
2023-05-25T11:39:02.517Z,28.66
2023-05-25T11:40:09.770Z,28.77
2023-05-25T11:41:24.588Z,28.89
2023-05-25T11:42:27.942Z,28.27
2023-05-25T11:43:34.331Z,27.90
2023-05-25T11:44:39.039Z,28.33
2023-05-25T11:45:41.671Z,28.38
2023-05-25T11:46:44.079Z,28.53
2023-05-25T11:47:46.549Z,28.92
2023-05-25T11:48:53.683Z,29.01
2023-05-25T11:49:56.652Z,28.79
2023-05-25T11:51:07.873Z,28.96
2023-05-25T11:52:10.736Z,29.12
2023-05-25T11:53:13.913Z,28.96
2023-05-25T11:54:27.173Z,28.89
2023-05-25T11:55:29.552Z,28.66
2023-05-25T11:56:35.762Z,28.83
2023-05-25T11:57:40.464Z,28.83
2023-05-25T11:58:46.376Z,28.52
2023-05-25T11:59:51.156Z,28.42
2023-05-25T12:00:53.738Z,28.33
2023-05-25T12:01:57.609Z,28.51
2023-05-25T12:03:00.200Z,28.77
2023-05-25T12:04:11.908Z,28.82
2023-05-25T12:05:14.446Z,28.54
2023-05-25T12:06:28.168Z,29.10
2023-05-25T12:07:32.194Z,28.96
2023-05-25T12:08:36.194Z,28.53
2023-05-25T12:09:38.513Z,28.47
2023-05-25T12:10:51.587Z,29.08
2023-05-25T12:11:54.197Z,29.02
2023-05-25T12:12:58.582Z,28.95
2023-05-25T12:14:03.837Z,29.15
2023-05-25T12:15:06.951Z,29.04
2023-05-25T12:16:09.311Z,29.08
2023-05-25T12:17:11.919Z,28.94
2023-05-25T12:18:14.769Z,28.77
2023-05-25T12:19:18.489Z,28.97
2023-05-25T12:20:22.636Z,29.27
2023-05-25T12:21:25.327Z,29.29
2023-05-25T12:22:28.267Z,29.53
2023-05-25T12:23:30.623Z,29.47
2023-05-25T12:24:33.084Z,29.23
2023-05-25T12:25:49.795Z,29.04
2023-05-25T12:27:01.715Z,29.49
2023-05-25T12:28:15.222Z,29.17
2023-05-25T12:29:17.606Z,28.86
2023-05-25T12:30:28.406Z,29.00
2023-05-25T12:31:35.790Z,29.16
2023-05-25T12:33:02.854Z,29.41
2023-05-25T12:34:06.785Z,29.55
2023-05-25T12:35:09.548Z,29.81
2023-05-25T12:36:11.914Z,29.39
2023-05-25T12:37:23.588Z,29.50
2023-05-25T12:38:26.200Z,29.23
2023-05-25T12:39:33.267Z,28.98
2023-05-25T12:40:35.630Z,28.94
2023-05-25T12:41:55.000Z,28.76
2023-05-25T12:42:58.006Z,28.41
2023-05-25T12:44:00.800Z,28.70
2023-05-25T12:45:03.414Z,28.50
2023-05-25T12:46:05.885Z,28.39
2023-05-25T12:47:21.386Z,28.58
2023-05-25T12:48:28.086Z,28.91
2023-05-25T12:49:34.841Z,29.13
2023-05-25T12:50:37.506Z,29.30
2023-05-25T12:51:39.962Z,29.80
2023-05-25T12:52:44.516Z,29.86
2023-05-25T12:53:50.941Z,29.74
2023-05-25T12:54:53.278Z,29.50
2023-05-25T12:56:04.779Z,29.65
2023-05-25T12:57:09.232Z,30.03
2023-05-25T12:58:27.541Z,29.79
2023-05-25T12:59:31.620Z,29.96
2023-05-25T13:00:39.117Z,30.06
2023-05-25T13:01:41.461Z,29.73
2023-05-25T13:02:46.632Z,29.89
2023-05-25T13:03:50.208Z,30.01
2023-05-25T13:04:53.060Z,29.50
2023-05-25T13:06:03.305Z,29.92
2023-05-25T13:07:06.870Z,29.13
2023-05-25T13:08:09.248Z,29.17
2023-05-25T13:09:11.749Z,29.12
2023-05-25T13:10:16.160Z,29.07
2023-05-25T13:11:18.529Z,29.07
2023-05-25T13:12:20.958Z,29.14
2023-05-25T13:13:23.318Z,28.86
2023-05-25T13:14:26.694Z,28.91
2023-05-25T13:15:29.210Z,28.83
2023-05-25T13:16:33.587Z,28.50
2023-05-25T13:17:36.734Z,28.56
2023-05-25T13:18:39.767Z,28.87
2023-05-25T13:19:42.083Z,28.93
2023-05-25T13:20:47.225Z,28.82
2023-05-25T13:21:52.819Z,28.45
2023-05-25T13:22:58.268Z,28.11
2023-05-25T13:24:00.585Z,28.47
2023-05-25T13:25:03.326Z,28.33
2023-05-25T13:26:06.787Z,28.74
2023-05-25T13:27:09.118Z,28.96
2023-05-25T13:28:11.700Z,29.04
2023-05-25T13:29:14.109Z,29.15
2023-05-25T13:30:17.208Z,29.34
2023-05-25T13:31:19.669Z,28.92
2023-05-25T13:32:22.175Z,29.01
2023-05-25T13:33:24.547Z,28.91
2023-05-25T13:34:27.078Z,29.14
2023-05-25T13:35:45.969Z,29.30
2023-05-25T13:36:48.867Z,29.09
2023-05-25T13:37:51.580Z,29.00
2023-05-25T13:38:54.234Z,28.69
2023-05-25T13:39:56.589Z,29.06
2023-05-25T13:40:58.978Z,29.31
2023-05-25T13:42:01.311Z,29.42
2023-05-25T13:43:03.697Z,29.07
2023-05-25T13:44:06.024Z,28.79
2023-05-25T13:45:08.960Z,28.47
2023-05-25T13:46:25.862Z,28.51
2023-05-25T13:47:35.161Z,28.81
2023-05-25T13:48:37.946Z,28.60
2023-05-25T13:49:40.399Z,29.07
2023-05-25T13:50:45.294Z,28.70
2023-05-25T13:51:48.151Z,28.98
2023-05-25T13:52:50.651Z,28.99
2023-05-25T13:53:53.804Z,29.37
2023-05-25T13:54:56.286Z,29.06